sensor_id;sensor_type;location;lat;lon;timestamp;P1;durP1;ratioP1;P2;durP2;ratioP2
2644;SDS011;15377;48.540;9.268;2023-05-21T00:00:34;11.53;;;6.47;;
2644;SDS011;15377;48.540;9.268;2023-05-21T00:03:00;10.20;;;6.10;;
2644;SDS011;15377;48.540;9.268;2023-05-21T00:05:25;9.73;;;5.60;;
2644;SDS011;15377;48.540;9.268;2023-05-21T00:07:51;11.43;;;6.83;;
2644;SDS011;15377;48.540;9.268;2023-05-21T00:10:18;11.47;;;6.73;;
2644;SDS011;15377;48.540;9.268;2023-05-21T00:12:44;10.87;;;6.73;;
2644;SDS011;15377;48.540;9.268;2023-05-21T00:15:10;11.23;;;6.30;;
2644;SDS011;15377;48.540;9.268;2023-05-21T00:17:35;11.17;;;6.77;;
2644;SDS011;15377;48.540;9.268;2023-05-21T00:20:02;12.00;;;7.03;;
2644;SDS011;15377;48.540;9.268;2023-05-21T00:22:31;10.70;;;6.50;;
2644;SDS011;15377;48.540;9.268;2023-05-21T00:24:57;10.30;;;6.83;;
2644;SDS011;15377;48.540;9.268;2023-05-21T00:27:23;11.03;;;7.00;;
2644;SDS011;15377;48.540;9.268;2023-05-21T00:29:48;11.83;;;6.90;;
2644;SDS011;15377;48.540;9.268;2023-05-21T00:32:14;13.13;;;6.80;;
2644;SDS011;15377;48.540;9.268;2023-05-21T00:34:39;15.73;;;6.40;;
2644;SDS011;15377;48.540;9.268;2023-05-21T00:37:04;12.87;;;7.10;;
2644;SDS011;15377;48.540;9.268;2023-05-21T00:39:30;10.80;;;6.90;;
2644;SDS011;15377;48.540;9.268;2023-05-21T00:41:56;12.40;;;6.93;;
2644;SDS011;15377;48.540;9.268;2023-05-21T00:44:22;12.00;;;7.00;;
2644;SDS011;15377;48.540;9.268;2023-05-21T00:46:48;11.87;;;6.83;;
2644;SDS011;15377;48.540;9.268;2023-05-21T00:49:17;12.80;;;8.47;;
2644;SDS011;15377;48.540;9.268;2023-05-21T00:51:43;11.50;;;7.43;;
2644;SDS011;15377;48.540;9.268;2023-05-21T00:54:09;13.00;;;7.40;;
2644;SDS011;15377;48.540;9.268;2023-05-21T00:56:35;12.90;;;7.80;;
2644;SDS011;15377;48.540;9.268;2023-05-21T00:59:01;13.10;;;8.67;;
2644;SDS011;15377;48.540;9.268;2023-05-21T01:01:29;12.40;;;7.80;;
2644;SDS011;15377;48.540;9.268;2023-05-21T01:03:57;13.60;;;7.80;;
2644;SDS011;15377;48.540;9.268;2023-05-21T01:06:25;12.10;;;7.33;;
2644;SDS011;15377;48.540;9.268;2023-05-21T01:08:52;12.63;;;7.80;;
2644;SDS011;15377;48.540;9.268;2023-05-21T01:11:20;15.67;;;8.30;;
2644;SDS011;15377;48.540;9.268;2023-05-21T01:13:54;13.30;;;7.80;;
2644;SDS011;15377;48.540;9.268;2023-05-21T01:16:20;15.50;;;8.40;;
2644;SDS011;15377;48.540;9.268;2023-05-21T01:18:47;12.27;;;7.93;;
2644;SDS011;15377;48.540;9.268;2023-05-21T01:21:12;12.30;;;6.97;;
2644;SDS011;15377;48.540;9.268;2023-05-21T01:23:41;15.20;;;6.57;;
2644;SDS011;15377;48.540;9.268;2023-05-21T01:26:06;10.80;;;6.23;;
2644;SDS011;15377;48.540;9.268;2023-05-21T01:28:32;12.53;;;7.30;;
2644;SDS011;15377;48.540;9.268;2023-05-21T01:30:59;10.03;;;6.90;;
2644;SDS011;15377;48.540;9.268;2023-05-21T01:33:28;10.33;;;5.87;;
2644;SDS011;15377;48.540;9.268;2023-05-21T01:36:08;10.27;;;6.17;;
2644;SDS011;15377;48.540;9.268;2023-05-21T01:38:53;17.10;;;7.63;;
2644;SDS011;15377;48.540;9.268;2023-05-21T01:41:24;11.50;;;6.60;;
2644;SDS011;15377;48.540;9.268;2023-05-21T01:43:53;12.17;;;7.30;;
2644;SDS011;15377;48.540;9.268;2023-05-21T01:46:21;12.27;;;7.20;;
2644;SDS011;15377;48.540;9.268;2023-05-21T01:48:49;12.50;;;7.40;;
2644;SDS011;15377;48.540;9.268;2023-05-21T01:51:16;12.73;;;7.40;;
2644;SDS011;15377;48.540;9.268;2023-05-21T01:53:43;12.77;;;7.07;;
2644;SDS011;15377;48.540;9.268;2023-05-21T01:56:08;13.20;;;8.47;;
2644;SDS011;15377;48.540;9.268;2023-05-21T01:58:35;13.97;;;7.27;;
2644;SDS011;15377;48.540;9.268;2023-05-21T02:01:01;12.17;;;7.57;;
2644;SDS011;15377;48.540;9.268;2023-05-21T02:03:26;13.50;;;7.70;;
2644;SDS011;15377;48.540;9.268;2023-05-21T02:05:52;13.80;;;8.53;;
2644;SDS011;15377;48.540;9.268;2023-05-21T02:08:19;13.53;;;7.17;;
2644;SDS011;15377;48.540;9.268;2023-05-21T02:10:44;13.73;;;8.07;;
2644;SDS011;15377;48.540;9.268;2023-05-21T02:13:10;11.07;;;7.10;;
2644;SDS011;15377;48.540;9.268;2023-05-21T02:15:35;13.20;;;7.60;;
2644;SDS011;15377;48.540;9.268;2023-05-21T02:18:01;13.33;;;7.33;;
2644;SDS011;15377;48.540;9.268;2023-05-21T02:20:26;20.43;;;7.53;;
2644;SDS011;15377;48.540;9.268;2023-05-21T02:22:51;11.57;;;6.80;;
2644;SDS011;15377;48.540;9.268;2023-05-21T02:25:17;12.13;;;7.43;;
2644;SDS011;15377;48.540;9.268;2023-05-21T02:27:46;14.13;;;7.33;;
2644;SDS011;15377;48.540;9.268;2023-05-21T02:30:12;17.30;;;8.17;;
2644;SDS011;15377;48.540;9.268;2023-05-21T02:32:39;13.67;;;8.30;;
2644;SDS011;15377;48.540;9.268;2023-05-21T02:35:06;13.50;;;8.37;;
2644;SDS011;15377;48.540;9.268;2023-05-21T02:37:34;13.00;;;8.43;;
2644;SDS011;15377;48.540;9.268;2023-05-21T02:40:03;13.73;;;8.70;;
2644;SDS011;15377;48.540;9.268;2023-05-21T02:42:35;14.80;;;8.33;;
2644;SDS011;15377;48.540;9.268;2023-05-21T02:45:03;13.30;;;8.37;;
2644;SDS011;15377;48.540;9.268;2023-05-21T02:47:32;12.87;;;8.93;;
2644;SDS011;15377;48.540;9.268;2023-05-21T02:49:58;14.67;;;9.17;;
2644;SDS011;15377;48.540;9.268;2023-05-21T02:52:24;15.73;;;9.90;;
2644;SDS011;15377;48.540;9.268;2023-05-21T02:54:50;14.93;;;9.00;;
2644;SDS011;15377;48.540;9.268;2023-05-21T02:57:16;13.87;;;8.73;;
2644;SDS011;15377;48.540;9.268;2023-05-21T02:59:42;15.33;;;8.37;;
2644;SDS011;15377;48.540;9.268;2023-05-21T03:02:07;15.40;;;9.67;;
2644;SDS011;15377;48.540;9.268;2023-05-21T03:04:33;14.20;;;9.07;;
2644;SDS011;15377;48.540;9.268;2023-05-21T03:07:02;14.50;;;8.73;;
2644;SDS011;15377;48.540;9.268;2023-05-21T03:09:28;16.10;;;7.90;;
2644;SDS011;15377;48.540;9.268;2023-05-21T03:11:53;11.90;;;7.50;;
2644;SDS011;15377;48.540;9.268;2023-05-21T03:14:19;12.67;;;7.83;;
2644;SDS011;15377;48.540;9.268;2023-05-21T03:16:44;13.67;;;8.20;;
2644;SDS011;15377;48.540;9.268;2023-05-21T03:19:10;13.07;;;8.77;;
2644;SDS011;15377;48.540;9.268;2023-05-21T03:21:36;14.03;;;8.90;;
2644;SDS011;15377;48.540;9.268;2023-05-21T03:24:02;15.67;;;9.47;;
2644;SDS011;15377;48.540;9.268;2023-05-21T03:26:28;13.30;;;8.47;;
2644;SDS011;15377;48.540;9.268;2023-05-21T03:28:54;14.00;;;8.47;;
2644;SDS011;15377;48.540;9.268;2023-05-21T03:31:20;15.00;;;8.80;;
2644;SDS011;15377;48.540;9.268;2023-05-21T03:33:46;15.83;;;9.40;;
2644;SDS011;15377;48.540;9.268;2023-05-21T03:36:12;13.90;;;7.90;;
2644;SDS011;15377;48.540;9.268;2023-05-21T03:38:37;15.90;;;9.73;;
2644;SDS011;15377;48.540;9.268;2023-05-21T03:41:02;15.30;;;8.57;;
2644;SDS011;15377;48.540;9.268;2023-05-21T03:43:28;14.13;;;8.73;;
2644;SDS011;15377;48.540;9.268;2023-05-21T03:45:53;15.37;;;9.13;;
2644;SDS011;15377;48.540;9.268;2023-05-21T03:48:19;13.87;;;8.03;;
2644;SDS011;15377;48.540;9.268;2023-05-21T03:50:44;13.23;;;8.30;;
2644;SDS011;15377;48.540;9.268;2023-05-21T03:53:09;12.33;;;7.77;;
2644;SDS011;15377;48.540;9.268;2023-05-21T03:55:35;14.50;;;9.10;;
2644;SDS011;15377;48.540;9.268;2023-05-21T03:58:00;15.80;;;10.00;;
2644;SDS011;15377;48.540;9.268;2023-05-21T04:00:26;14.40;;;8.70;;
2644;SDS011;15377;48.540;9.268;2023-05-21T04:02:51;17.00;;;9.37;;
2644;SDS011;15377;48.540;9.268;2023-05-21T04:05:17;16.47;;;10.03;;
2644;SDS011;15377;48.540;9.268;2023-05-21T04:07:42;14.70;;;9.33;;
2644;SDS011;15377;48.540;9.268;2023-05-21T04:10:10;16.30;;;9.50;;
2644;SDS011;15377;48.540;9.268;2023-05-21T04:12:36;15.30;;;10.17;;
2644;SDS011;15377;48.540;9.268;2023-05-21T04:15:01;15.23;;;9.20;;
2644;SDS011;15377;48.540;9.268;2023-05-21T04:17:27;15.63;;;9.40;;
2644;SDS011;15377;48.540;9.268;2023-05-21T04:19:52;14.43;;;8.73;;
2644;SDS011;15377;48.540;9.268;2023-05-21T04:22:18;13.10;;;8.00;;
2644;SDS011;15377;48.540;9.268;2023-05-21T04:24:43;15.10;;;8.50;;
2644;SDS011;15377;48.540;9.268;2023-05-21T04:27:10;13.97;;;8.37;;
2644;SDS011;15377;48.540;9.268;2023-05-21T04:29:37;14.13;;;7.33;;
2644;SDS011;15377;48.540;9.268;2023-05-21T04:32:06;13.47;;;8.40;;
2644;SDS011;15377;48.540;9.268;2023-05-21T04:34:32;12.77;;;8.30;;
2644;SDS011;15377;48.540;9.268;2023-05-21T04:36:57;16.20;;;8.90;;
2644;SDS011;15377;48.540;9.268;2023-05-21T04:39:23;12.67;;;8.23;;
2644;SDS011;15377;48.540;9.268;2023-05-21T04:41:48;16.93;;;9.80;;
2644;SDS011;15377;48.540;9.268;2023-05-21T04:44:14;17.57;;;10.77;;
2644;SDS011;15377;48.540;9.268;2023-05-21T04:46:40;15.00;;;8.43;;
2644;SDS011;15377;48.540;9.268;2023-05-21T04:49:05;14.43;;;9.27;;
2644;SDS011;15377;48.540;9.268;2023-05-21T04:51:30;13.93;;;8.57;;
2644;SDS011;15377;48.540;9.268;2023-05-21T04:53:56;16.07;;;9.17;;
2644;SDS011;15377;48.540;9.268;2023-05-21T04:56:25;18.13;;;9.70;;
2644;SDS011;15377;48.540;9.268;2023-05-21T04:58:51;15.17;;;8.60;;
2644;SDS011;15377;48.540;9.268;2023-05-21T05:01:20;15.03;;;9.17;;
2644;SDS011;15377;48.540;9.268;2023-05-21T05:03:53;15.37;;;8.90;;
2644;SDS011;15377;48.540;9.268;2023-05-21T05:06:18;14.27;;;9.37;;
2644;SDS011;15377;48.540;9.268;2023-05-21T05:08:45;14.67;;;9.97;;
2644;SDS011;15377;48.540;9.268;2023-05-21T05:11:11;14.70;;;8.20;;
2644;SDS011;15377;48.540;9.268;2023-05-21T05:13:38;17.10;;;10.17;;
2644;SDS011;15377;48.540;9.268;2023-05-21T05:16:05;14.50;;;9.00;;
2644;SDS011;15377;48.540;9.268;2023-05-21T05:18:31;16.13;;;8.83;;
2644;SDS011;15377;48.540;9.268;2023-05-21T05:20:58;12.00;;;7.70;;
2644;SDS011;15377;48.540;9.268;2023-05-21T05:23:23;11.90;;;7.70;;
2644;SDS011;15377;48.540;9.268;2023-05-21T05:25:48;14.67;;;8.70;;
2644;SDS011;15377;48.540;9.268;2023-05-21T05:28:14;12.93;;;8.10;;
2644;SDS011;15377;48.540;9.268;2023-05-21T05:30:39;12.37;;;8.17;;
2644;SDS011;15377;48.540;9.268;2023-05-21T05:33:05;15.90;;;9.37;;
2644;SDS011;15377;48.540;9.268;2023-05-21T05:35:30;13.27;;;8.07;;
2644;SDS011;15377;48.540;9.268;2023-05-21T05:37:55;15.23;;;8.87;;
2644;SDS011;15377;48.540;9.268;2023-05-21T05:40:21;14.20;;;8.20;;
2644;SDS011;15377;48.540;9.268;2023-05-21T05:42:46;13.53;;;9.60;;
2644;SDS011;15377;48.540;9.268;2023-05-21T05:45:13;12.67;;;8.30;;
2644;SDS011;15377;48.540;9.268;2023-05-21T05:47:39;17.33;;;8.77;;
2644;SDS011;15377;48.540;9.268;2023-05-21T05:50:04;15.70;;;8.80;;
2644;SDS011;15377;48.540;9.268;2023-05-21T05:52:30;15.07;;;8.30;;
2644;SDS011;15377;48.540;9.268;2023-05-21T05:54:55;15.53;;;10.23;;
2644;SDS011;15377;48.540;9.268;2023-05-21T05:57:21;15.20;;;8.80;;
2644;SDS011;15377;48.540;9.268;2023-05-21T05:59:46;12.83;;;7.80;;
2644;SDS011;15377;48.540;9.268;2023-05-21T06:02:11;12.73;;;8.60;;
2644;SDS011;15377;48.540;9.268;2023-05-21T06:04:37;12.13;;;8.20;;
2644;SDS011;15377;48.540;9.268;2023-05-21T06:07:02;14.30;;;9.17;;
2644;SDS011;15377;48.540;9.268;2023-05-21T06:09:28;14.03;;;8.90;;
2644;SDS011;15377;48.540;9.268;2023-05-21T06:11:53;13.03;;;9.50;;
2644;SDS011;15377;48.540;9.268;2023-05-21T06:14:19;14.43;;;9.57;;
2644;SDS011;15377;48.540;9.268;2023-05-21T06:16:45;14.67;;;9.20;;
2644;SDS011;15377;48.540;9.268;2023-05-21T06:19:10;15.03;;;8.57;;
2644;SDS011;15377;48.540;9.268;2023-05-21T06:21:35;16.10;;;9.30;;
2644;SDS011;15377;48.540;9.268;2023-05-21T06:24:01;14.53;;;9.73;;
2644;SDS011;15377;48.540;9.268;2023-05-21T06:26:26;14.20;;;9.43;;
2644;SDS011;15377;48.540;9.268;2023-05-21T06:28:51;13.20;;;9.40;;
2644;SDS011;15377;48.540;9.268;2023-05-21T06:31:17;16.10;;;10.67;;
2644;SDS011;15377;48.540;9.268;2023-05-21T06:33:42;15.33;;;9.77;;
2644;SDS011;15377;48.540;9.268;2023-05-21T06:36:08;14.60;;;8.80;;
2644;SDS011;15377;48.540;9.268;2023-05-21T06:38:33;15.43;;;10.10;;
2644;SDS011;15377;48.540;9.268;2023-05-21T06:40:59;15.07;;;10.30;;
2644;SDS011;15377;48.540;9.268;2023-05-21T06:43:24;14.67;;;9.23;;
2644;SDS011;15377;48.540;9.268;2023-05-21T06:45:49;15.20;;;10.73;;
2644;SDS011;15377;48.540;9.268;2023-05-21T06:48:15;19.07;;;11.70;;
2644;SDS011;15377;48.540;9.268;2023-05-21T06:50:41;15.33;;;10.07;;
2644;SDS011;15377;48.540;9.268;2023-05-21T06:53:07;16.83;;;10.70;;
2644;SDS011;15377;48.540;9.268;2023-05-21T06:55:33;15.93;;;10.00;;
2644;SDS011;15377;48.540;9.268;2023-05-21T06:57:58;15.80;;;10.67;;
2644;SDS011;15377;48.540;9.268;2023-05-21T07:00:23;16.23;;;10.00;;
2644;SDS011;15377;48.540;9.268;2023-05-21T07:02:49;14.40;;;9.70;;
2644;SDS011;15377;48.540;9.268;2023-05-21T07:05:15;16.27;;;10.20;;
2644;SDS011;15377;48.540;9.268;2023-05-21T07:07:40;15.50;;;9.67;;
2644;SDS011;15377;48.540;9.268;2023-05-21T07:10:06;16.60;;;10.30;;
2644;SDS011;15377;48.540;9.268;2023-05-21T07:12:32;16.20;;;11.00;;
2644;SDS011;15377;48.540;9.268;2023-05-21T07:14:57;15.50;;;9.83;;
2644;SDS011;15377;48.540;9.268;2023-05-21T07:17:23;14.23;;;9.90;;
2644;SDS011;15377;48.540;9.268;2023-05-21T07:19:48;15.10;;;10.07;;
2644;SDS011;15377;48.540;9.268;2023-05-21T07:22:13;14.93;;;10.13;;
2644;SDS011;15377;48.540;9.268;2023-05-21T07:24:39;15.57;;;9.80;;
2644;SDS011;15377;48.540;9.268;2023-05-21T07:27:04;15.10;;;10.20;;
2644;SDS011;15377;48.540;9.268;2023-05-21T07:29:31;14.57;;;10.17;;
2644;SDS011;15377;48.540;9.268;2023-05-21T07:31:57;16.03;;;10.67;;
2644;SDS011;15377;48.540;9.268;2023-05-21T07:34:22;14.90;;;10.37;;
2644;SDS011;15377;48.540;9.268;2023-05-21T07:36:48;13.60;;;9.20;;
2644;SDS011;15377;48.540;9.268;2023-05-21T07:39:13;19.97;;;14.03;;
2644;SDS011;15377;48.540;9.268;2023-05-21T07:41:39;28.30;;;19.00;;
2644;SDS011;15377;48.540;9.268;2023-05-21T07:44:04;15.13;;;10.43;;
2644;SDS011;15377;48.540;9.268;2023-05-21T07:46:30;15.57;;;10.50;;
2644;SDS011;15377;48.540;9.268;2023-05-21T07:48:55;13.47;;;10.00;;
2644;SDS011;15377;48.540;9.268;2023-05-21T07:51:21;15.47;;;10.97;;
2644;SDS011;15377;48.540;9.268;2023-05-21T07:53:46;13.80;;;9.20;;
2644;SDS011;15377;48.540;9.268;2023-05-21T07:56:11;15.30;;;10.30;;
2644;SDS011;15377;48.540;9.268;2023-05-21T07:58:46;13.50;;;10.27;;
2644;SDS011;15377;48.540;9.268;2023-05-21T08:01:11;47.70;;;28.67;;
2644;SDS011;15377;48.540;9.268;2023-05-21T08:03:37;14.77;;;10.80;;
2644;SDS011;15377;48.540;9.268;2023-05-21T08:06:02;16.30;;;9.57;;
2644;SDS011;15377;48.540;9.268;2023-05-21T08:08:28;13.97;;;10.23;;
2644;SDS011;15377;48.540;9.268;2023-05-21T08:10:53;14.77;;;10.47;;
2644;SDS011;15377;48.540;9.268;2023-05-21T08:13:18;16.07;;;9.93;;
2644;SDS011;15377;48.540;9.268;2023-05-21T08:15:44;16.47;;;9.63;;
2644;SDS011;15377;48.540;9.268;2023-05-21T08:18:09;13.40;;;9.57;;
2644;SDS011;15377;48.540;9.268;2023-05-21T08:20:35;14.07;;;10.17;;
2644;SDS011;15377;48.540;9.268;2023-05-21T08:23:11;14.97;;;10.20;;
2644;SDS011;15377;48.540;9.268;2023-05-21T08:25:36;15.90;;;10.13;;
2644;SDS011;15377;48.540;9.268;2023-05-21T08:28:01;15.07;;;10.10;;
2644;SDS011;15377;48.540;9.268;2023-05-21T08:30:27;13.10;;;9.10;;
2644;SDS011;15377;48.540;9.268;2023-05-21T08:32:52;15.03;;;10.20;;
2644;SDS011;15377;48.540;9.268;2023-05-21T08:35:18;15.70;;;10.30;;
2644;SDS011;15377;48.540;9.268;2023-05-21T08:37:44;15.50;;;10.00;;
2644;SDS011;15377;48.540;9.268;2023-05-21T08:40:10;15.00;;;10.70;;
2644;SDS011;15377;48.540;9.268;2023-05-21T08:42:43;14.10;;;9.67;;
2644;SDS011;15377;48.540;9.268;2023-05-21T08:45:13;16.30;;;10.00;;
2644;SDS011;15377;48.540;9.268;2023-05-21T08:47:41;13.43;;;9.37;;
2644;SDS011;15377;48.540;9.268;2023-05-21T08:50:08;14.50;;;10.60;;
2644;SDS011;15377;48.540;9.268;2023-05-21T08:52:35;15.63;;;10.83;;
2644;SDS011;15377;48.540;9.268;2023-05-21T08:55:07;12.97;;;9.50;;
2644;SDS011;15377;48.540;9.268;2023-05-21T08:57:33;16.63;;;10.57;;
2644;SDS011;15377;48.540;9.268;2023-05-21T09:00:02;14.77;;;10.50;;
2644;SDS011;15377;48.540;9.268;2023-05-21T09:02:33;17.67;;;11.40;;
2644;SDS011;15377;48.540;9.268;2023-05-21T09:05:00;14.33;;;10.87;;
2644;SDS011;15377;48.540;9.268;2023-05-21T09:07:27;16.57;;;11.17;;
2644;SDS011;15377;48.540;9.268;2023-05-21T09:09:55;15.57;;;10.30;;
2644;SDS011;15377;48.540;9.268;2023-05-21T09:12:22;18.67;;;11.50;;
2644;SDS011;15377;48.540;9.268;2023-05-21T09:14:49;15.70;;;10.30;;
2644;SDS011;15377;48.540;9.268;2023-05-21T09:17:14;27.03;;;18.93;;
2644;SDS011;15377;48.540;9.268;2023-05-21T09:22:42;13.23;;;9.23;;
2644;SDS011;15377;48.540;9.268;2023-05-21T09:25:09;12.97;;;9.60;;
2644;SDS011;15377;48.540;9.268;2023-05-21T09:27:36;15.13;;;9.80;;
2644;SDS011;15377;48.540;9.268;2023-05-21T09:30:03;12.97;;;9.50;;
2644;SDS011;15377;48.540;9.268;2023-05-21T09:32:29;13.17;;;9.70;;
2644;SDS011;15377;48.540;9.268;2023-05-21T09:34:54;13.67;;;10.20;;
2644;SDS011;15377;48.540;9.268;2023-05-21T09:37:20;11.70;;;9.20;;
2644;SDS011;15377;48.540;9.268;2023-05-21T09:39:46;14.83;;;9.60;;
2644;SDS011;15377;48.540;9.268;2023-05-21T09:42:12;12.97;;;9.27;;
2644;SDS011;15377;48.540;9.268;2023-05-21T09:44:38;13.20;;;9.13;;
2644;SDS011;15377;48.540;9.268;2023-05-21T09:47:07;11.97;;;8.47;;
2644;SDS011;15377;48.540;9.268;2023-05-21T09:49:33;12.97;;;8.83;;
2644;SDS011;15377;48.540;9.268;2023-05-21T09:52:01;12.13;;;8.67;;
2644;SDS011;15377;48.540;9.268;2023-05-21T09:54:30;13.13;;;9.80;;
2644;SDS011;15377;48.540;9.268;2023-05-21T09:56:57;14.27;;;10.10;;
2644;SDS011;15377;48.540;9.268;2023-05-21T09:59:33;12.60;;;8.83;;
2644;SDS011;15377;48.540;9.268;2023-05-21T10:01:59;13.10;;;8.77;;
2644;SDS011;15377;48.540;9.268;2023-05-21T10:04:26;11.70;;;7.77;;
2644;SDS011;15377;48.540;9.268;2023-05-21T10:06:54;12.60;;;8.60;;
2644;SDS011;15377;48.540;9.268;2023-05-21T10:09:20;11.17;;;7.67;;
2644;SDS011;15377;48.540;9.268;2023-05-21T10:11:46;13.50;;;9.30;;
2644;SDS011;15377;48.540;9.268;2023-05-21T10:14:15;13.33;;;9.10;;
2644;SDS011;15377;48.540;9.268;2023-05-21T10:16:43;13.07;;;9.27;;
2644;SDS011;15377;48.540;9.268;2023-05-21T10:19:10;10.90;;;7.83;;
2644;SDS011;15377;48.540;9.268;2023-05-21T10:21:38;11.77;;;9.20;;
2644;SDS011;15377;48.540;9.268;2023-05-21T10:24:05;16.23;;;11.10;;
2644;SDS011;15377;48.540;9.268;2023-05-21T10:26:31;12.63;;;9.73;;
2644;SDS011;15377;48.540;9.268;2023-05-21T10:28:57;13.00;;;9.40;;
2644;SDS011;15377;48.540;9.268;2023-05-21T10:31:24;13.77;;;9.77;;
2644;SDS011;15377;48.540;9.268;2023-05-21T10:33:52;12.23;;;8.53;;
2644;SDS011;15377;48.540;9.268;2023-05-21T10:36:17;12.40;;;8.73;;
2644;SDS011;15377;48.540;9.268;2023-05-21T10:38:44;12.73;;;7.90;;
2644;SDS011;15377;48.540;9.268;2023-05-21T10:41:11;11.50;;;8.17;;
2644;SDS011;15377;48.540;9.268;2023-05-21T10:43:46;11.50;;;8.50;;
2644;SDS011;15377;48.540;9.268;2023-05-21T10:46:41;14.20;;;9.47;;
2644;SDS011;15377;48.540;9.268;2023-05-21T10:57:33;12.50;;;9.03;;
2644;SDS011;15377;48.540;9.268;2023-05-21T11:00:21;11.27;;;8.20;;
2644;SDS011;15377;48.540;9.268;2023-05-21T11:02:49;11.80;;;7.47;;
2644;SDS011;15377;48.540;9.268;2023-05-21T11:05:17;11.27;;;7.30;;
2644;SDS011;15377;48.540;9.268;2023-05-21T11:08:02;12.03;;;7.80;;
2644;SDS011;15377;48.540;9.268;2023-05-21T11:10:28;10.60;;;7.20;;
2644;SDS011;15377;48.540;9.268;2023-05-21T11:13:15;11.37;;;7.40;;
2644;SDS011;15377;48.540;9.268;2023-05-21T11:18:21;10.50;;;7.40;;
2644;SDS011;15377;48.540;9.268;2023-05-21T11:20:49;10.43;;;7.47;;
2644;SDS011;15377;48.540;9.268;2023-05-21T11:23:15;10.27;;;7.37;;
2644;SDS011;15377;48.540;9.268;2023-05-21T11:25:40;10.90;;;7.80;;
2644;SDS011;15377;48.540;9.268;2023-05-21T11:28:06;10.87;;;6.90;;
2644;SDS011;15377;48.540;9.268;2023-05-21T11:30:33;10.33;;;7.13;;
2644;SDS011;15377;48.540;9.268;2023-05-21T11:38:09;10.00;;;6.73;;
2644;SDS011;15377;48.540;9.268;2023-05-21T11:40:34;10.63;;;7.40;;
2644;SDS011;15377;48.540;9.268;2023-05-21T11:43:00;11.30;;;7.33;;
2644;SDS011;15377;48.540;9.268;2023-05-21T11:45:29;9.80;;;6.60;;
2644;SDS011;15377;48.540;9.268;2023-05-21T11:47:56;9.70;;;6.43;;
2644;SDS011;15377;48.540;9.268;2023-05-21T11:50:22;8.70;;;5.93;;
2644;SDS011;15377;48.540;9.268;2023-05-21T11:52:48;10.07;;;6.77;;
2644;SDS011;15377;48.540;9.268;2023-05-21T11:55:14;9.53;;;6.40;;
2644;SDS011;15377;48.540;9.268;2023-05-21T11:57:45;10.37;;;6.77;;
2644;SDS011;15377;48.540;9.268;2023-05-21T12:00:15;10.63;;;7.00;;
2644;SDS011;15377;48.540;9.268;2023-05-21T12:02:45;9.40;;;6.07;;
2644;SDS011;15377;48.540;9.268;2023-05-21T12:05:11;8.73;;;5.63;;
2644;SDS011;15377;48.540;9.268;2023-05-21T12:07:37;9.60;;;6.73;;
2644;SDS011;15377;48.540;9.268;2023-05-21T12:10:02;10.00;;;6.90;;
2644;SDS011;15377;48.540;9.268;2023-05-21T12:12:29;9.37;;;6.23;;
2644;SDS011;15377;48.540;9.268;2023-05-21T12:14:56;8.77;;;6.03;;
2644;SDS011;15377;48.540;9.268;2023-05-21T12:17:23;10.30;;;6.50;;
2644;SDS011;15377;48.540;9.268;2023-05-21T12:19:55;9.67;;;6.20;;
2644;SDS011;15377;48.540;9.268;2023-05-21T12:22:24;10.83;;;6.97;;
2644;SDS011;15377;48.540;9.268;2023-05-21T12:24:51;9.47;;;6.73;;
2644;SDS011;15377;48.540;9.268;2023-05-21T12:27:17;10.13;;;6.87;;
2644;SDS011;15377;48.540;9.268;2023-05-21T12:29:43;9.47;;;5.50;;
2644;SDS011;15377;48.540;9.268;2023-05-21T12:32:11;8.90;;;6.20;;
2644;SDS011;15377;48.540;9.268;2023-05-21T12:34:38;9.33;;;6.07;;
2644;SDS011;15377;48.540;9.268;2023-05-21T12:37:28;8.70;;;6.27;;
2644;SDS011;15377;48.540;9.268;2023-05-21T12:39:59;9.67;;;6.43;;
2644;SDS011;15377;48.540;9.268;2023-05-21T12:42:35;9.17;;;5.60;;
2644;SDS011;15377;48.540;9.268;2023-05-21T12:45:07;8.60;;;6.00;;
2644;SDS011;15377;48.540;9.268;2023-05-21T12:47:33;9.07;;;5.90;;
2644;SDS011;15377;48.540;9.268;2023-05-21T12:50:00;8.37;;;5.60;;
2644;SDS011;15377;48.540;9.268;2023-05-21T12:52:26;9.77;;;6.60;;
2644;SDS011;15377;48.540;9.268;2023-05-21T12:54:55;9.53;;;6.30;;
2644;SDS011;15377;48.540;9.268;2023-05-21T12:57:23;10.20;;;6.17;;
2644;SDS011;15377;48.540;9.268;2023-05-21T13:04:55;9.47;;;5.70;;
2644;SDS011;15377;48.540;9.268;2023-05-21T13:07:27;9.40;;;6.20;;
2644;SDS011;15377;48.540;9.268;2023-05-21T13:09:53;9.10;;;5.90;;
2644;SDS011;15377;48.540;9.268;2023-05-21T13:12:20;8.80;;;5.80;;
2644;SDS011;15377;48.540;9.268;2023-05-21T13:14:47;9.60;;;6.10;;
2644;SDS011;15377;48.540;9.268;2023-05-21T13:17:14;10.77;;;6.40;;
2644;SDS011;15377;48.540;9.268;2023-05-21T13:19:42;9.43;;;6.13;;
2644;SDS011;15377;48.540;9.268;2023-05-21T13:22:08;10.10;;;6.70;;
2644;SDS011;15377;48.540;9.268;2023-05-21T13:24:34;9.37;;;6.13;;
2644;SDS011;15377;48.540;9.268;2023-05-21T13:27:00;8.40;;;5.60;;
2644;SDS011;15377;48.540;9.268;2023-05-21T13:29:26;9.97;;;7.00;;
2644;SDS011;15377;48.540;9.268;2023-05-21T13:31:51;9.53;;;6.60;;
2644;SDS011;15377;48.540;9.268;2023-05-21T13:34:17;9.83;;;6.53;;
2644;SDS011;15377;48.540;9.268;2023-05-21T13:36:42;9.63;;;6.10;;
2644;SDS011;15377;48.540;9.268;2023-05-21T13:39:23;8.57;;;5.50;;
2644;SDS011;15377;48.540;9.268;2023-05-21T13:41:51;8.60;;;5.80;;
2644;SDS011;15377;48.540;9.268;2023-05-21T13:44:16;10.23;;;5.70;;
2644;SDS011;15377;48.540;9.268;2023-05-21T13:46:42;9.30;;;5.60;;
2644;SDS011;15377;48.540;9.268;2023-05-21T13:49:07;10.37;;;6.50;;
2644;SDS011;15377;48.540;9.268;2023-05-21T13:51:32;9.60;;;5.90;;
2644;SDS011;15377;48.540;9.268;2023-05-21T13:53:58;9.40;;;5.13;;
2644;SDS011;15377;48.540;9.268;2023-05-21T13:56:23;8.10;;;5.50;;
2644;SDS011;15377;48.540;9.268;2023-05-21T13:58:49;8.73;;;5.53;;
2644;SDS011;15377;48.540;9.268;2023-05-21T14:01:14;8.07;;;5.30;;
2644;SDS011;15377;48.540;9.268;2023-05-21T14:03:39;8.10;;;5.27;;
2644;SDS011;15377;48.540;9.268;2023-05-21T14:06:05;8.60;;;5.60;;
2644;SDS011;15377;48.540;9.268;2023-05-21T14:08:31;8.97;;;5.63;;
2644;SDS011;15377;48.540;9.268;2023-05-21T14:10:57;9.00;;;5.17;;
2644;SDS011;15377;48.540;9.268;2023-05-21T14:13:22;9.70;;;5.53;;
2644;SDS011;15377;48.540;9.268;2023-05-21T14:15:47;9.93;;;6.40;;
2644;SDS011;15377;48.540;9.268;2023-05-21T14:18:12;9.63;;;5.60;;
2644;SDS011;15377;48.540;9.268;2023-05-21T14:20:38;10.03;;;5.40;;
2644;SDS011;15377;48.540;9.268;2023-05-21T14:23:03;8.67;;;5.47;;
2644;SDS011;15377;48.540;9.268;2023-05-21T14:25:29;10.00;;;5.77;;
2644;SDS011;15377;48.540;9.268;2023-05-21T14:27:54;8.70;;;5.40;;
2644;SDS011;15377;48.540;9.268;2023-05-21T14:30:20;8.77;;;5.07;;
2644;SDS011;15377;48.540;9.268;2023-05-21T14:32:45;8.83;;;5.90;;
2644;SDS011;15377;48.540;9.268;2023-05-21T14:35:10;8.10;;;5.40;;
2644;SDS011;15377;48.540;9.268;2023-05-21T14:37:36;8.73;;;5.40;;
2644;SDS011;15377;48.540;9.268;2023-05-21T14:40:01;8.37;;;5.23;;
2644;SDS011;15377;48.540;9.268;2023-05-21T14:42:29;9.50;;;4.83;;
2644;SDS011;15377;48.540;9.268;2023-05-21T14:44:54;8.80;;;5.40;;
2644;SDS011;15377;48.540;9.268;2023-05-21T14:47:20;9.13;;;5.40;;
2644;SDS011;15377;48.540;9.268;2023-05-21T14:49:45;9.50;;;5.67;;
2644;SDS011;15377;48.540;9.268;2023-05-21T14:52:10;8.60;;;5.27;;
2644;SDS011;15377;48.540;9.268;2023-05-21T14:54:36;8.47;;;5.20;;
2644;SDS011;15377;48.540;9.268;2023-05-21T14:57:01;8.33;;;5.50;;
2644;SDS011;15377;48.540;9.268;2023-05-21T14:59:26;8.10;;;5.30;;
2644;SDS011;15377;48.540;9.268;2023-05-21T15:01:52;8.77;;;5.97;;
2644;SDS011;15377;48.540;9.268;2023-05-21T15:04:17;8.13;;;5.70;;
2644;SDS011;15377;48.540;9.268;2023-05-21T15:06:42;8.67;;;5.43;;
2644;SDS011;15377;48.540;9.268;2023-05-21T15:09:08;8.60;;;5.33;;